sensor_id;sensor_type;location;lat;lon;timestamp;P1;durP1;ratioP1;P2;durP2;ratioP2
18754;SDS011;35061;47.664;9.166;2023-03-20T00:03:49;3.25;;;2.83;;
18754;SDS011;35061;47.664;9.166;2023-03-20T00:06:18;2.25;;;2.05;;
18754;SDS011;35061;47.664;9.166;2023-03-20T00:08:49;2.87;;;2.25;;
18754;SDS011;35061;47.664;9.166;2023-03-20T00:11:29;2.65;;;2.20;;
18754;SDS011;35061;47.664;9.166;2023-03-20T00:14:00;2.45;;;2.25;;
18754;SDS011;35061;47.664;9.166;2023-03-20T00:16:41;2.75;;;2.30;;
18754;SDS011;35061;47.664;9.166;2023-03-20T00:21:45;2.50;;;2.03;;
18754;SDS011;35061;47.664;9.166;2023-03-20T00:24:14;2.53;;;2.10;;
18754;SDS011;35061;47.664;9.166;2023-03-20T00:26:44;2.40;;;2.15;;
18754;SDS011;35061;47.664;9.166;2023-03-20T00:29:34;2.65;;;2.15;;
18754;SDS011;35061;47.664;9.166;2023-03-20T00:32:00;2.72;;;2.50;;
18754;SDS011;35061;47.664;9.166;2023-03-20T00:34:28;2.65;;;1.75;;
18754;SDS011;35061;47.664;9.166;2023-03-20T00:36:57;2.90;;;1.77;;
18754;SDS011;35061;47.664;9.166;2023-03-20T00:39:26;2.37;;;1.85;;
18754;SDS011;35061;47.664;9.166;2023-03-20T00:41:57;2.12;;;1.83;;
18754;SDS011;35061;47.664;9.166;2023-03-20T00:44:29;1.90;;;1.67;;
18754;SDS011;35061;47.664;9.166;2023-03-20T00:47:01;2.17;;;1.87;;
18754;SDS011;35061;47.664;9.166;2023-03-20T00:49:32;3.50;;;1.70;;
18754;SDS011;35061;47.664;9.166;2023-03-20T00:52:01;2.25;;;1.87;;
18754;SDS011;35061;47.664;9.166;2023-03-20T00:54:30;2.30;;;2.03;;
18754;SDS011;35061;47.664;9.166;2023-03-20T00:59:27;2.60;;;2.20;;
18754;SDS011;35061;47.664;9.166;2023-03-20T01:01:58;2.53;;;2.05;;
18754;SDS011;35061;47.664;9.166;2023-03-20T01:04:38;2.35;;;1.87;;
18754;SDS011;35061;47.664;9.166;2023-03-20T01:07:11;2.45;;;1.90;;
18754;SDS011;35061;47.664;9.166;2023-03-20T01:09:41;3.08;;;2.10;;
18754;SDS011;35061;47.664;9.166;2023-03-20T01:12:09;2.25;;;2.05;;
18754;SDS011;35061;47.664;9.166;2023-03-20T01:14:39;2.00;;;1.80;;
18754;SDS011;35061;47.664;9.166;2023-03-20T01:17:17;2.87;;;2.17;;
18754;SDS011;35061;47.664;9.166;2023-03-20T01:19:47;2.33;;;2.12;;
18754;SDS011;35061;47.664;9.166;2023-03-20T01:22:15;2.00;;;1.80;;
18754;SDS011;35061;47.664;9.166;2023-03-20T01:24:46;3.40;;;2.30;;
18754;SDS011;35061;47.664;9.166;2023-03-20T01:27:15;2.33;;;1.98;;
18754;SDS011;35061;47.664;9.166;2023-03-20T01:29:44;2.08;;;1.83;;
18754;SDS011;35061;47.664;9.166;2023-03-20T01:32:14;2.50;;;2.25;;
18754;SDS011;35061;47.664;9.166;2023-03-20T01:34:43;3.03;;;2.55;;
18754;SDS011;35061;47.664;9.166;2023-03-20T01:37:12;2.62;;;2.35;;
18754;SDS011;35061;47.664;9.166;2023-03-20T01:39:43;2.78;;;2.50;;
18754;SDS011;35061;47.664;9.166;2023-03-20T01:42:13;2.87;;;2.17;;
18754;SDS011;35061;47.664;9.166;2023-03-20T01:44:42;2.22;;;2.03;;
18754;SDS011;35061;47.664;9.166;2023-03-20T01:47:11;3.67;;;2.35;;
18754;SDS011;35061;47.664;9.166;2023-03-20T01:52:59;2.42;;;2.22;;
18754;SDS011;35061;47.664;9.166;2023-03-20T01:55:32;2.10;;;1.90;;
18754;SDS011;35061;47.664;9.166;2023-03-20T01:58:03;2.35;;;2.15;;
18754;SDS011;35061;47.664;9.166;2023-03-20T02:00:36;2.65;;;1.70;;
18754;SDS011;35061;47.664;9.166;2023-03-20T02:03:05;3.60;;;1.85;;
18754;SDS011;35061;47.664;9.166;2023-03-20T02:05:35;2.62;;;1.77;;
18754;SDS011;35061;47.664;9.166;2023-03-20T02:08:17;1.75;;;1.65;;
18754;SDS011;35061;47.664;9.166;2023-03-20T02:10:49;1.98;;;1.80;;
18754;SDS011;35061;47.664;9.166;2023-03-20T02:13:17;2.08;;;1.87;;
18754;SDS011;35061;47.664;9.166;2023-03-20T02:16:02;1.92;;;1.83;;
18754;SDS011;35061;47.664;9.166;2023-03-20T02:18:30;3.50;;;2.08;;
18754;SDS011;35061;47.664;9.166;2023-03-20T02:26:59;2.95;;;2.10;;
18754;SDS011;35061;47.664;9.166;2023-03-20T02:41:30;1.90;;;1.80;;
18754;SDS011;35061;47.664;9.166;2023-03-20T02:44:21;2.10;;;1.90;;
18754;SDS011;35061;47.664;9.166;2023-03-20T02:46:59;1.85;;;1.70;;
18754;SDS011;35061;47.664;9.166;2023-03-20T02:52:19;3.30;;;1.95;;
18754;SDS011;35061;47.664;9.166;2023-03-20T02:55:04;2.05;;;1.65;;
18754;SDS011;35061;47.664;9.166;2023-03-20T02:57:56;1.70;;;1.48;;
18754;SDS011;35061;47.664;9.166;2023-03-20T03:00:37;1.50;;;1.40;;
18754;SDS011;35061;47.664;9.166;2023-03-20T03:03:16;1.42;;;1.27;;
18754;SDS011;35061;47.664;9.166;2023-03-20T03:05:57;1.70;;;1.40;;
18754;SDS011;35061;47.664;9.166;2023-03-20T03:08:28;2.20;;;1.55;;
18754;SDS011;35061;47.664;9.166;2023-03-20T03:11:02;1.40;;;1.30;;
18754;SDS011;35061;47.664;9.166;2023-03-20T03:13:33;1.45;;;1.27;;
18754;SDS011;35061;47.664;9.166;2023-03-20T03:16:06;1.90;;;1.75;;
18754;SDS011;35061;47.664;9.166;2023-03-20T03:18:40;2.30;;;1.87;;
18754;SDS011;35061;47.664;9.166;2023-03-20T03:21:10;1.52;;;1.42;;
18754;SDS011;35061;47.664;9.166;2023-03-20T03:23:42;1.80;;;1.70;;
18754;SDS011;35061;47.664;9.166;2023-03-20T03:29:17;2.40;;;1.50;;
18754;SDS011;35061;47.664;9.166;2023-03-20T03:31:46;2.10;;;1.62;;
18754;SDS011;35061;47.664;9.166;2023-03-20T03:34:15;1.70;;;1.48;;
18754;SDS011;35061;47.664;9.166;2023-03-20T03:36:47;1.90;;;1.45;;
18754;SDS011;35061;47.664;9.166;2023-03-20T03:39:35;1.40;;;1.30;;
18754;SDS011;35061;47.664;9.166;2023-03-20T03:47:42;1.85;;;1.50;;
18754;SDS011;35061;47.664;9.166;2023-03-20T03:50:15;1.02;;;1.02;;
18754;SDS011;35061;47.664;9.166;2023-03-20T03:52:48;1.50;;;1.40;;
18754;SDS011;35061;47.664;9.166;2023-03-20T03:55:23;1.48;;;1.20;;
18754;SDS011;35061;47.664;9.166;2023-03-20T03:58:03;3.30;;;1.62;;
18754;SDS011;35061;47.664;9.166;2023-03-20T04:00:35;1.80;;;1.60;;
18754;SDS011;35061;47.664;9.166;2023-03-20T04:03:07;1.52;;;1.30;;
18754;SDS011;35061;47.664;9.166;2023-03-20T04:05:37;1.73;;;1.30;;
18754;SDS011;35061;47.664;9.166;2023-03-20T04:08:09;5.00;;;1.30;;
18754;SDS011;35061;47.664;9.166;2023-03-20T04:10:37;1.40;;;1.20;;
18754;SDS011;35061;47.664;9.166;2023-03-20T04:13:04;1.20;;;1.10;;
18754;SDS011;35061;47.664;9.166;2023-03-20T04:15:32;1.62;;;1.23;;
18754;SDS011;35061;47.664;9.166;2023-03-20T04:18:00;1.30;;;1.20;;
18754;SDS011;35061;47.664;9.166;2023-03-20T04:20:28;2.30;;;1.30;;
18754;SDS011;35061;47.664;9.166;2023-03-20T04:22:56;1.75;;;1.65;;
18754;SDS011;35061;47.664;9.166;2023-03-20T04:25:24;1.67;;;1.30;;
18754;SDS011;35061;47.664;9.166;2023-03-20T04:27:52;1.30;;;1.17;;
18754;SDS011;35061;47.664;9.166;2023-03-20T04:30:20;3.12;;;1.40;;
18754;SDS011;35061;47.664;9.166;2023-03-20T04:32:48;1.75;;;1.33;;
18754;SDS011;35061;47.664;9.166;2023-03-20T04:35:16;1.62;;;1.37;;
18754;SDS011;35061;47.664;9.166;2023-03-20T04:37:44;1.87;;;1.50;;
18754;SDS011;35061;47.664;9.166;2023-03-20T04:40:11;1.40;;;1.30;;
18754;SDS011;35061;47.664;9.166;2023-03-20T04:42:39;1.67;;;1.58;;
18754;SDS011;35061;47.664;9.166;2023-03-20T04:45:07;1.85;;;1.60;;
18754;SDS011;35061;47.664;9.166;2023-03-20T04:47:35;1.83;;;1.67;;
18754;SDS011;35061;47.664;9.166;2023-03-20T04:50:04;1.80;;;1.65;;
18754;SDS011;35061;47.664;9.166;2023-03-20T04:52:32;2.47;;;2.12;;
18754;SDS011;35061;47.664;9.166;2023-03-20T04:55:00;1.75;;;1.62;;
18754;SDS011;35061;47.664;9.166;2023-03-20T04:57:28;1.48;;;1.37;;
18754;SDS011;35061;47.664;9.166;2023-03-20T04:59:58;2.65;;;1.40;;
18754;SDS011;35061;47.664;9.166;2023-03-20T05:02:26;1.90;;;1.60;;
18754;SDS011;35061;47.664;9.166;2023-03-20T05:04:54;1.90;;;1.80;;
18754;SDS011;35061;47.664;9.166;2023-03-20T05:07:21;1.48;;;1.37;;
18754;SDS011;35061;47.664;9.166;2023-03-20T05:09:49;2.25;;;1.73;;
18754;SDS011;35061;47.664;9.166;2023-03-20T05:12:17;1.60;;;1.37;;
18754;SDS011;35061;47.664;9.166;2023-03-20T05:14:44;2.50;;;1.58;;
18754;SDS011;35061;47.664;9.166;2023-03-20T05:17:12;2.05;;;1.73;;
18754;SDS011;35061;47.664;9.166;2023-03-20T05:19:40;2.08;;;1.77;;
18754;SDS011;35061;47.664;9.166;2023-03-20T05:22:09;2.00;;;1.65;;
18754;SDS011;35061;47.664;9.166;2023-03-20T05:24:37;3.08;;;2.05;;
18754;SDS011;35061;47.664;9.166;2023-03-20T05:27:05;2.10;;;1.60;;
18754;SDS011;35061;47.664;9.166;2023-03-20T05:29:33;1.73;;;1.55;;
18754;SDS011;35061;47.664;9.166;2023-03-20T05:32:00;2.10;;;1.70;;
18754;SDS011;35061;47.664;9.166;2023-03-20T05:34:28;1.75;;;1.65;;
18754;SDS011;35061;47.664;9.166;2023-03-20T05:36:56;2.08;;;1.83;;
18754;SDS011;35061;47.664;9.166;2023-03-20T05:39:24;2.50;;;1.75;;
18754;SDS011;35061;47.664;9.166;2023-03-20T05:41:52;2.17;;;1.98;;
18754;SDS011;35061;47.664;9.166;2023-03-20T05:44:20;2.10;;;1.90;;
18754;SDS011;35061;47.664;9.166;2023-03-20T05:46:48;4.68;;;2.30;;
18754;SDS011;35061;47.664;9.166;2023-03-20T05:49:15;2.70;;;2.33;;
18754;SDS011;35061;47.664;9.166;2023-03-20T05:51:43;3.62;;;2.30;;
18754;SDS011;35061;47.664;9.166;2023-03-20T05:54:11;2.50;;;2.17;;
18754;SDS011;35061;47.664;9.166;2023-03-20T05:56:39;2.58;;;1.98;;
18754;SDS011;35061;47.664;9.166;2023-03-20T05:59:07;3.70;;;2.25;;
18754;SDS011;35061;47.664;9.166;2023-03-20T06:01:35;2.58;;;2.25;;
18754;SDS011;35061;47.664;9.166;2023-03-20T06:04:02;2.55;;;2.28;;
18754;SDS011;35061;47.664;9.166;2023-03-20T06:06:30;2.60;;;2.22;;
18754;SDS011;35061;47.664;9.166;2023-03-20T06:08:58;3.30;;;2.42;;
18754;SDS011;35061;47.664;9.166;2023-03-20T06:11:26;4.22;;;3.60;;
18754;SDS011;35061;47.664;9.166;2023-03-20T06:13:53;3.47;;;2.75;;
18754;SDS011;35061;47.664;9.166;2023-03-20T06:16:22;3.47;;;3.10;;
18754;SDS011;35061;47.664;9.166;2023-03-20T06:18:49;4.10;;;3.37;;
18754;SDS011;35061;47.664;9.166;2023-03-20T06:21:17;3.87;;;3.33;;
18754;SDS011;35061;47.664;9.166;2023-03-20T06:23:45;5.07;;;3.25;;
18754;SDS011;35061;47.664;9.166;2023-03-20T06:26:13;3.92;;;3.50;;
18754;SDS011;35061;47.664;9.166;2023-03-20T06:28:40;5.55;;;3.60;;
18754;SDS011;35061;47.664;9.166;2023-03-20T06:31:08;4.07;;;3.62;;
18754;SDS011;35061;47.664;9.166;2023-03-20T06:33:36;4.30;;;3.58;;
18754;SDS011;35061;47.664;9.166;2023-03-20T06:36:04;3.55;;;3.25;;
18754;SDS011;35061;47.664;9.166;2023-03-20T06:38:32;5.30;;;3.22;;
18754;SDS011;35061;47.664;9.166;2023-03-20T06:41:00;3.92;;;3.60;;
18754;SDS011;35061;47.664;9.166;2023-03-20T06:43:27;4.62;;;3.87;;
18754;SDS011;35061;47.664;9.166;2023-03-20T06:45:55;3.60;;;3.30;;
18754;SDS011;35061;47.664;9.166;2023-03-20T06:48:23;3.30;;;2.78;;
18754;SDS011;35061;47.664;9.166;2023-03-20T06:50:51;3.45;;;2.92;;
18754;SDS011;35061;47.664;9.166;2023-03-20T06:53:19;3.10;;;2.80;;
18754;SDS011;35061;47.664;9.166;2023-03-20T06:55:47;2.47;;;2.20;;
18754;SDS011;35061;47.664;9.166;2023-03-20T06:58:17;3.17;;;2.65;;
18754;SDS011;35061;47.664;9.166;2023-03-20T07:00:45;3.00;;;2.70;;
18754;SDS011;35061;47.664;9.166;2023-03-20T07:03:13;3.53;;;2.40;;
18754;SDS011;35061;47.664;9.166;2023-03-20T07:05:42;3.35;;;2.33;;
18754;SDS011;35061;47.664;9.166;2023-03-20T07:08:09;3.00;;;2.67;;
18754;SDS011;35061;47.664;9.166;2023-03-20T07:10:37;3.33;;;2.50;;
18754;SDS011;35061;47.664;9.166;2023-03-20T07:13:05;3.00;;;2.55;;
18754;SDS011;35061;47.664;9.166;2023-03-20T07:15:32;2.70;;;2.42;;
18754;SDS011;35061;47.664;9.166;2023-03-20T07:18:00;2.87;;;2.65;;
18754;SDS011;35061;47.664;9.166;2023-03-20T07:20:28;3.15;;;2.30;;
18754;SDS011;35061;47.664;9.166;2023-03-20T07:22:56;3.00;;;2.53;;
18754;SDS011;35061;47.664;9.166;2023-03-20T07:25:24;4.87;;;2.90;;
18754;SDS011;35061;47.664;9.166;2023-03-20T07:28:07;3.75;;;3.08;;
18754;SDS011;35061;47.664;9.166;2023-03-20T07:30:35;3.65;;;2.50;;
18754;SDS011;35061;47.664;9.166;2023-03-20T07:33:02;3.30;;;2.37;;
18754;SDS011;35061;47.664;9.166;2023-03-20T07:35:30;3.33;;;2.92;;
18754;SDS011;35061;47.664;9.166;2023-03-20T07:37:58;4.35;;;2.92;;
18754;SDS011;35061;47.664;9.166;2023-03-20T07:40:26;3.30;;;3.00;;
18754;SDS011;35061;47.664;9.166;2023-03-20T07:42:54;2.75;;;2.55;;
18754;SDS011;35061;47.664;9.166;2023-03-20T07:45:22;3.20;;;2.45;;
18754;SDS011;35061;47.664;9.166;2023-03-20T07:47:50;2.95;;;2.65;;
18754;SDS011;35061;47.664;9.166;2023-03-20T07:50:18;2.60;;;2.40;;
18754;SDS011;35061;47.664;9.166;2023-03-20T07:52:46;2.28;;;2.08;;
18754;SDS011;35061;47.664;9.166;2023-03-20T07:55:15;2.22;;;2.03;;
18754;SDS011;35061;47.664;9.166;2023-03-20T07:57:43;3.08;;;2.28;;
18754;SDS011;35061;47.664;9.166;2023-03-20T08:00:12;1.87;;;1.77;;
18754;SDS011;35061;47.664;9.166;2023-03-20T08:02:40;2.53;;;2.33;;
18754;SDS011;35061;47.664;9.166;2023-03-20T08:05:08;2.33;;;1.95;;
18754;SDS011;35061;47.664;9.166;2023-03-20T08:07:36;2.97;;;1.62;;
18754;SDS011;35061;47.664;9.166;2023-03-20T08:10:04;2.25;;;1.95;;
18754;SDS011;35061;47.664;9.166;2023-03-20T08:12:32;2.67;;;1.80;;
18754;SDS011;35061;47.664;9.166;2023-03-20T08:15:00;1.80;;;1.70;;
18754;SDS011;35061;47.664;9.166;2023-03-20T08:17:27;1.90;;;1.70;;
18754;SDS011;35061;47.664;9.166;2023-03-20T08:19:55;1.52;;;1.40;;
18754;SDS011;35061;47.664;9.166;2023-03-20T08:22:23;2.20;;;1.65;;
18754;SDS011;35061;47.664;9.166;2023-03-20T08:24:51;1.80;;;1.70;;
18754;SDS011;35061;47.664;9.166;2023-03-20T08:27:18;2.00;;;1.90;;
18754;SDS011;35061;47.664;9.166;2023-03-20T08:29:46;1.80;;;1.70;;
18754;SDS011;35061;47.664;9.166;2023-03-20T08:32:14;1.62;;;1.48;;
18754;SDS011;35061;47.664;9.166;2023-03-20T08:34:41;2.97;;;2.70;;
18754;SDS011;35061;47.664;9.166;2023-03-20T08:37:09;1.60;;;1.50;;
18754;SDS011;35061;47.664;9.166;2023-03-20T08:39:38;1.60;;;1.50;;
18754;SDS011;35061;47.664;9.166;2023-03-20T08:42:06;1.73;;;1.62;;
18754;SDS011;35061;47.664;9.166;2023-03-20T08:44:34;1.83;;;1.35;;
18754;SDS011;35061;47.664;9.166;2023-03-20T08:47:02;1.40;;;1.30;;
18754;SDS011;35061;47.664;9.166;2023-03-20T08:49:32;2.20;;;1.30;;
18754;SDS011;35061;47.664;9.166;2023-03-20T08:52:00;2.12;;;1.33;;
18754;SDS011;35061;47.664;9.166;2023-03-20T08:54:28;1.65;;;1.37;;
18754;SDS011;35061;47.664;9.166;2023-03-20T08:56:56;1.58;;;1.48;;
18754;SDS011;35061;47.664;9.166;2023-03-20T08:59:24;1.42;;;1.20;;
18754;SDS011;35061;47.664;9.166;2023-03-20T09:01:51;1.50;;;1.40;;
18754;SDS011;35061;47.664;9.166;2023-03-20T09:04:19;1.30;;;1.20;;
18754;SDS011;35061;47.664;9.166;2023-03-20T09:06:48;1.60;;;1.50;;
18754;SDS011;35061;47.664;9.166;2023-03-20T09:09:16;1.60;;;1.30;;
18754;SDS011;35061;47.664;9.166;2023-03-20T09:11:46;2.55;;;1.20;;
18754;SDS011;35061;47.664;9.166;2023-03-20T09:14:13;1.48;;;1.30;;
18754;SDS011;35061;47.664;9.166;2023-03-20T09:16:41;1.33;;;1.27;;
18754;SDS011;35061;47.664;9.166;2023-03-20T09:19:09;1.60;;;1.33;;
18754;SDS011;35061;47.664;9.166;2023-03-20T09:21:37;1.60;;;1.02;;
18754;SDS011;35061;47.664;9.166;2023-03-20T09:24:05;1.25;;;1.15;;
18754;SDS011;35061;47.664;9.166;2023-03-20T09:26:33;0.85;;;0.85;;
18754;SDS011;35061;47.664;9.166;2023-03-20T09:29:01;1.20;;;0.95;;
18754;SDS011;35061;47.664;9.166;2023-03-20T09:31:28;2.00;;;1.10;;
18754;SDS011;35061;47.664;9.166;2023-03-20T09:33:57;1.10;;;1.00;;
18754;SDS011;35061;47.664;9.166;2023-03-20T09:36:24;0.60;;;0.60;;
18754;SDS011;35061;47.664;9.166;2023-03-20T09:38:52;0.60;;;0.60;;
18754;SDS011;35061;47.664;9.166;2023-03-20T09:41:20;0.80;;;0.50;;
18754;SDS011;35061;47.664;9.166;2023-03-20T09:46:46;0.80;;;0.80;;
18754;SDS011;35061;47.664;9.166;2023-03-20T09:52:34;1.98;;;1.15;;
18754;SDS011;35061;47.664;9.166;2023-03-20T09:55:11;0.95;;;0.90;;
18754;SDS011;35061;47.664;9.166;2023-03-20T09:57:43;0.88;;;0.88;;
18754;SDS011;35061;47.664;9.166;2023-03-20T10:00:14;0.90;;;0.75;;
18754;SDS011;35061;47.664;9.166;2023-03-20T10:02:51;0.75;;;0.75;;
18754;SDS011;35061;47.664;9.166;2023-03-20T10:05:24;1.33;;;0.90;;
18754;SDS011;35061;47.664;9.166;2023-03-20T10:07:56;0.80;;;0.80;;
18754;SDS011;35061;47.664;9.166;2023-03-20T10:10:45;0.70;;;0.68;;
18754;SDS011;35061;47.664;9.166;2023-03-20T10:21:38;1.58;;;1.23;;
18754;SDS011;35061;47.664;9.166;2023-03-20T10:24:16;1.60;;;1.50;;
18754;SDS011;35061;47.664;9.166;2023-03-20T10:26:56;1.40;;;0.90;;
18754;SDS011;35061;47.664;9.166;2023-03-20T10:29:40;1.42;;;1.33;;
18754;SDS011;35061;47.664;9.166;2023-03-20T10:32:36;1.27;;;1.20;;
18754;SDS011;35061;47.664;9.166;2023-03-20T10:35:32;1.30;;;1.20;;
18754;SDS011;35061;47.664;9.166;2023-03-20T10:38:16;0.80;;;0.80;;
18754;SDS011;35061;47.664;9.166;2023-03-20T10:40:51;0.80;;;0.80;;
18754;SDS011;35061;47.664;9.166;2023-03-20T10:43:31;0.85;;;0.85;;
18754;SDS011;35061;47.664;9.166;2023-03-20T10:46:07;1.20;;;1.10;;
18754;SDS011;35061;47.664;9.166;2023-03-20T10:51:35;1.83;;;1.00;;
18754;SDS011;35061;47.664;9.166;2023-03-20T10:57:22;1.20;;;1.10;;
18754;SDS011;35061;47.664;9.166;2023-03-20T10:59:55;1.25;;;0.80;;
18754;SDS011;35061;47.664;9.166;2023-03-20T11:02:26;1.23;;;1.12;;
18754;SDS011;35061;47.664;9.166;2023-03-20T11:04:56;1.65;;;1.10;;
18754;SDS011;35061;47.664;9.166;2023-03-20T11:07:33;0.90;;;0.70;;
18754;SDS011;35061;47.664;9.166;2023-03-20T11:12:31;0.65;;;0.60;;
18754;SDS011;35061;47.664;9.166;2023-03-20T11:15:14;0.75;;;0.52;;
18754;SDS011;35061;47.664;9.166;2023-03-20T11:17:58;0.60;;;0.60;;
18754;SDS011;35061;47.664;9.166;2023-03-20T11:20:32;0.50;;;0.50;;
18754;SDS011;35061;47.664;9.166;2023-03-20T11:23:03;1.02;;;0.40;;
18754;SDS011;35061;47.664;9.166;2023-03-20T11:25:33;0.70;;;0.70;;
18754;SDS011;35061;47.664;9.166;2023-03-20T11:30:56;0.73;;;0.70;;
18754;SDS011;35061;47.664;9.166;2023-03-20T11:33:44;1.40;;;0.75;;
18754;SDS011;35061;47.664;9.166;2023-03-20T11:36:21;0.77;;;0.77;;
18754;SDS011;35061;47.664;9.166;2023-03-20T11:38:54;1.23;;;0.60;;
18754;SDS011;35061;47.664;9.166;2023-03-20T11:41:28;1.10;;;0.70;;
18754;SDS011;35061;47.664;9.166;2023-03-20T11:43:56;6.75;;;0.80;;
18754;SDS011;35061;47.664;9.166;2023-03-20T11:46:23;1.20;;;0.90;;
18754;SDS011;35061;47.664;9.166;2023-03-20T11:49:02;1.20;;;1.10;;
18754;SDS011;35061;47.664;9.166;2023-03-20T11:51:34;1.15;;;1.00;;
18754;SDS011;35061;47.664;9.166;2023-03-20T11:54:04;1.10;;;1.00;;
18754;SDS011;35061;47.664;9.166;2023-03-20T11:56:34;1.73;;;1.20;;
18754;SDS011;35061;47.664;9.166;2023-03-20T11:59:06;2.20;;;1.12;;
18754;SDS011;35061;47.664;9.166;2023-03-20T12:01:46;1.00;;;0.90;;
18754;SDS011;35061;47.664;9.166;2023-03-20T12:04:18;1.30;;;1.15;;
18754;SDS011;35061;47.664;9.166;2023-03-20T12:09:34;2.15;;;1.17;;
18754;SDS011;35061;47.664;9.166;2023-03-20T12:12:08;1.40;;;1.25;;
18754;SDS011;35061;47.664;9.166;2023-03-20T12:17:39;1.87;;;1.00;;
18754;SDS011;35061;47.664;9.166;2023-03-20T12:20:33;1.30;;;1.20;;
18754;SDS011;35061;47.664;9.166;2023-03-20T12:25:53;1.25;;;1.15;;
18754;SDS011;35061;47.664;9.166;2023-03-20T12:28:37;1.40;;;1.30;;
18754;SDS011;35061;47.664;9.166;2023-03-20T12:36:34;0.98;;;0.98;;
18754;SDS011;35061;47.664;9.166;2023-03-20T12:39:08;1.48;;;1.37;;
18754;SDS011;35061;47.664;9.166;2023-03-20T12:41:48;1.58;;;1.00;;
18754;SDS011;35061;47.664;9.166;2023-03-20T12:44:45;2.33;;;1.12;;
18754;SDS011;35061;47.664;9.166;2023-03-20T12:50:40;0.85;;;0.85;;
18754;SDS011;35061;47.664;9.166;2023-03-20T12:53:54;1.23;;;0.95;;
18754;SDS011;35061;47.664;9.166;2023-03-20T12:56:45;1.45;;;1.10;;
18754;SDS011;35061;47.664;9.166;2023-03-20T13:02:30;1.10;;;1.00;;
18754;SDS011;35061;47.664;9.166;2023-03-20T13:14:05;0.82;;;0.80;;
18754;SDS011;35061;47.664;9.166;2023-03-20T13:19:23;1.48;;;1.23;;
18754;SDS011;35061;47.664;9.166;2023-03-20T13:22:26;0.88;;;0.80;;
18754;SDS011;35061;47.664;9.166;2023-03-20T13:27:55;1.00;;;0.80;;
18754;SDS011;35061;47.664;9.166;2023-03-20T13:33:56;0.95;;;0.60;;
18754;SDS011;35061;47.664;9.166;2023-03-20T13:36:26;1.95;;;0.80;;
18754;SDS011;35061;47.664;9.166;2023-03-20T13:42:03;2.95;;;0.90;;
18754;SDS011;35061;47.664;9.166;2023-03-20T13:44:36;0.90;;;0.90;;
18754;SDS011;35061;47.664;9.166;2023-03-20T13:47:14;0.80;;;0.80;;
18754;SDS011;35061;47.664;9.166;2023-03-20T14:03:16;0.60;;;0.60;;
18754;SDS011;35061;47.664;9.166;2023-03-20T14:05:52;0.60;;;0.60;;
18754;SDS011;35061;47.664;9.166;2023-03-20T14:11:11;0.82;;;0.55;;
18754;SDS011;35061;47.664;9.166;2023-03-20T14:13:53;0.55;;;0.50;;
18754;SDS011;35061;47.664;9.166;2023-03-20T14:16:22;1.02;;;0.55;;
18754;SDS011;35061;47.664;9.166;2023-03-20T14:19:06;0.80;;;0.80;;
18754;SDS011;35061;47.664;9.166;2023-03-20T14:21:45;1.80;;;0.73;;
18754;SDS011;35061;47.664;9.166;2023-03-20T14:24:16;0.80;;;0.80;;
18754;SDS011;35061;47.664;9.166;2023-03-20T14:26:47;0.75;;;0.60;;
18754;SDS011;35061;47.664;9.166;2023-03-20T14:31:47;0.77;;;0.70;;
18754;SDS011;35061;47.664;9.166;2023-03-20T14:34:17;0.82;;;0.82;;
18754;SDS011;35061;47.664;9.166;2023-03-20T14:36:58;0.80;;;0.80;;
18754;SDS011;35061;47.664;9.166;2023-03-20T14:42:34;1.12;;;1.02;;
18754;SDS011;35061;47.664;9.166;2023-03-20T14:45:29;0.95;;;0.80;;
18754;SDS011;35061;47.664;9.166;2023-03-20T14:48:32;1.52;;;0.80;;
18754;SDS011;35061;47.664;9.166;2023-03-20T14:51:05;0.70;;;0.70;;
18754;SDS011;35061;47.664;9.166;2023-03-20T14:56:24;0.80;;;0.80;;
18754;SDS011;35061;47.664;9.166;2023-03-20T15:01:39;1.12;;;0.80;;
18754;SDS011;35061;47.664;9.166;2023-03-20T15:04:20;0.70;;;0.70;;
18754;SDS011;35061;47.664;9.166;2023-03-20T15:07:14;1.92;;;0.70;;
18754;SDS011;35061;47.664;9.166;2023-03-20T15:09:43;1.67;;;1.00;;
18754;SDS011;35061;47.664;9.166;2023-03-20T15:12:14;0.88;;;0.70;;
18754;SDS011;35061;47.664;9.166;2023-03-20T15:14:55;1.25;;;0.80;;
18754;SDS011;35061;47.664;9.166;2023-03-20T15:17:35;1.98;;;0.80;;
18754;SDS011;35061;47.664;9.166;2023-03-20T15:22:51;1.85;;;0.85;;
18754;SDS011;35061;47.664;9.166;2023-03-20T15:25:24;0.80;;;0.60;;
18754;SDS011;35061;47.664;9.166;2023-03-20T15:27:59;0.40;;;0.40;;
18754;SDS011;35061;47.664;9.166;2023-03-20T15:30:26;0.57;;;0.57;;
18754;SDS011;35061;47.664;9.166;2023-03-20T15:33:04;0.90;;;0.80;;
18754;SDS011;35061;47.664;9.166;2023-03-20T15:35:32;0.80;;;0.80;;
18754;SDS011;35061;47.664;9.166;2023-03-20T15:38:04;1.12;;;0.57;;
18754;SDS011;35061;47.664;9.166;2023-03-20T15:40:37;0.60;;;0.60;;
18754;SDS011;35061;47.664;9.166;2023-03-20T15:43:20;1.90;;;0.60;;
18754;SDS011;35061;47.664;9.166;2023-03-20T15:45:50;0.50;;;0.50;;
18754;SDS011;35061;47.664;9.166;2023-03-20T15:48:45;0.80;;;0.80;;
18754;SDS011;35061;47.664;9.166;2023-03-20T15:51:14;0.90;;;0.80;;
18754;SDS011;35061;47.664;9.166;2023-03-20T15:53:43;1.08;;;0.62;;
18754;SDS011;35061;47.664;9.166;2023-03-20T15:56:14;0.52;;;0.52;;
18754;SDS011;35061;47.664;9.166;2023-03-20T15:58:45;0.70;;;0.70;;
18754;SDS011;35061;47.664;9.166;2023-03-20T16:01:17;0.70;;;0.65;;
18754;SDS011;35061;47.664;9.166;2023-03-20T16:03:47;0.73;;;0.73;;
18754;SDS011;35061;47.664;9.166;2023-03-20T16:06:17;0.98;;;0.70;;
18754;SDS011;35061;47.664;9.166;2023-03-20T16:09:06;0.80;;;0.50;;
18754;SDS011;35061;47.664;9.166;2023-03-20T16:11:38;0.60;;;0.60;;
18754;SDS011;35061;47.664;9.166;2023-03-20T16:14:42;0.40;;;0.40;;
18754;SDS011;35061;47.664;9.166;2023-03-20T16:17:02;0.80;;;0.50;;
18754;SDS011;35061;47.664;9.166;2023-03-20T16:19:31;1.48;;;0.60;;
18754;SDS011;35061;47.664;9.166;2023-03-20T16:22:08;0.68;;;0.68;;
18754;SDS011;35061;47.664;9.166;2023-03-20T16:24:47;0.50;;;0.50;;
18754;SDS011;35061;47.664;9.166;2023-03-20T16:27:19;1.10;;;1.00;;
18754;SDS011;35061;47.664;9.166;2023-03-20T16:29:54;0.82;;;0.60;;
18754;SDS011;35061;47.664;9.166;2023-03-20T16:32:45;1.02;;;0.65;;
18754;SDS011;35061;47.664;9.166;2023-03-20T16:35:17;0.90;;;0.73;;
18754;SDS011;35061;47.664;9.166;2023-03-20T16:37:51;0.70;;;0.70;;
18754;SDS011;35061;47.664;9.166;2023-03-20T16:43:10;2.78;;;0.75;;
18754;SDS011;35061;47.664;9.166;2023-03-20T16:45:42;0.57;;;0.57;;
18754;SDS011;35061;47.664;9.166;2023-03-20T16:50:40;2.35;;;0.75;;
18754;SDS011;35061;47.664;9.166;2023-03-20T16:53:13;0.60;;;0.60;;
18754;SDS011;35061;47.664;9.166;2023-03-20T16:55:43;1.15;;;0.60;;
18754;SDS011;35061;47.664;9.166;2023-03-20T16:58:15;0.50;;;0.50;;
18754;SDS011;35061;47.664;9.166;2023-03-20T17:00:51;0.60;;;0.60;;
18754;SDS011;35061;47.664;9.166;2023-03-20T17:03:25;0.80;;;0.80;;
18754;SDS011;35061;47.664;9.166;2023-03-20T17:05:58;1.10;;;0.80;;
18754;SDS011;35061;47.664;9.166;2023-03-20T17:08:35;1.40;;;0.80;;
18754;SDS011;35061;47.664;9.166;2023-03-20T17:11:14;0.82;;;0.80;;
18754;SDS011;35061;47.664;9.166;2023-03-20T17:13:48;1.37;;;1.00;;
18754;SDS011;35061;47.664;9.166;2023-03-20T17:16:18;0.98;;;0.80;;
18754;SDS011;35061;47.664;9.166;2023-03-20T17:18:56;2.03;;;0.80;;
18754;SDS011;35061;47.664;9.166;2023-03-20T17:21:37;1.02;;;0.98;;
18754;SDS011;35061;47.664;9.166;2023-03-20T17:24:05;1.42;;;0.80;;
18754;SDS011;35061;47.664;9.166;2023-03-20T17:26:33;1.15;;;0.80;;
18754;SDS011;35061;47.664;9.166;2023-03-20T17:29:01;1.77;;;0.90;;
18754;SDS011;35061;47.664;9.166;2023-03-20T17:31:29;1.02;;;0.80;;
18754;SDS011;35061;47.664;9.166;2023-03-20T17:33:58;0.88;;;0.80;;
18754;SDS011;35061;47.664;9.166;2023-03-20T17:36:27;1.15;;;0.90;;
18754;SDS011;35061;47.664;9.166;2023-03-20T17:38:57;0.88;;;0.80;;
18754;SDS011;35061;47.664;9.166;2023-03-20T17:41:26;1.40;;;1.12;;